Terminal Aerodrome Forecast
Issued by NWS Tulsa, OK

Home | Current Version | Previous Version | Text Only | Print | Product List | Glossary Off
Versions: 1 2 3 4 5 6 7 8 9 10 11 12 13 14 15 16 17 18 19 20 21 22 23 24 25 26 27

155
FTUS44 KTSA 161125
TAFTUL
TAF
KTUL 161125Z 1612/1712 15008KT P6SM FEW070 SCT250
     FM161500 19015G21KT P6SM SCT040 BKN250
     FM170200 19014KT P6SM VCTS BKN040CB
      TEMPO 1702/1705 3SM TSRA BKN040CB
     FM170500 21010KT P6SM SCT080 BKN250=

USA.gov is the U.S. government's official web portal to all federal, state and local government web resources and services.